createdAt,value
2023-05-13T00:00:00.433Z,17.90
2023-05-13T00:02:27.031Z,19.00
2023-05-13T00:04:53.590Z,19.20
2023-05-13T00:07:20.157Z,17.20
2023-05-13T00:09:46.703Z,18.70
2023-05-13T00:12:13.509Z,18.80
2023-05-13T00:14:40.201Z,20.70
2023-05-13T00:17:06.868Z,20.70
2023-05-13T00:19:33.331Z,19.40
2023-05-13T00:21:59.993Z,21.00
2023-05-13T00:24:26.565Z,16.50
2023-05-13T00:26:53.858Z,19.20
2023-05-13T00:29:20.405Z,15.40
2023-05-13T00:31:46.998Z,14.80
2023-05-13T00:34:13.750Z,13.00
2023-05-13T00:36:40.711Z,11.80
2023-05-13T00:39:07.196Z,15.70
2023-05-13T00:41:33.604Z,12.40
2023-05-13T00:44:00.184Z,13.30
2023-05-13T00:46:31.623Z,15.40
2023-05-13T00:51:25.909Z,17.40
2023-05-13T00:53:53.271Z,14.90
2023-05-13T00:56:21.082Z,12.30
2023-05-13T00:58:48.472Z,15.50
2023-05-13T01:01:23.544Z,13.20
2023-05-13T01:04:02.967Z,13.50
2023-05-13T01:06:47.517Z,18.50
2023-05-13T01:09:47.210Z,17.30
2023-05-13T01:12:21.204Z,14.00
2023-05-13T01:15:12.319Z,17.40
2023-05-13T01:17:49.770Z,13.40
2023-05-13T01:20:21.490Z,12.40
2023-05-13T01:22:49.039Z,14.50
2023-05-13T01:25:15.581Z,12.60
2023-05-13T01:27:42.241Z,13.20
2023-05-13T01:30:12.032Z,13.00
2023-05-13T01:32:38.910Z,12.40
2023-05-13T01:35:07.740Z,12.80
2023-05-13T01:37:35.591Z,12.70
2023-05-13T01:40:05.817Z,15.70
2023-05-13T01:42:36.505Z,13.40
2023-05-13T01:45:04.233Z,11.30
2023-05-13T01:47:30.788Z,12.20
2023-05-13T01:49:57.810Z,13.90
2023-05-13T01:52:24.298Z,10.60
2023-05-13T01:54:50.769Z,10.90
2023-05-13T01:57:17.245Z,16.20
2023-05-13T01:59:43.842Z,11.70
2023-05-13T02:02:10.471Z,11.10
2023-05-13T02:04:37.069Z,12.20
2023-05-13T02:07:03.684Z,10.10
2023-05-13T02:09:30.218Z,11.10
2023-05-13T02:11:56.648Z,11.20
2023-05-13T02:14:23.127Z,12.50
2023-05-13T02:16:49.654Z,12.90
2023-05-13T02:19:16.291Z,13.60
2023-05-13T02:21:42.690Z,9.40
2023-05-13T02:24:09.325Z,12.70
2023-05-13T02:26:35.984Z,12.90
2023-05-13T02:29:02.946Z,13.60
2023-05-13T02:31:29.477Z,11.20
2023-05-13T02:33:56.088Z,13.10
2023-05-13T02:36:22.753Z,12.00
2023-05-13T02:38:49.816Z,12.00
2023-05-13T02:41:16.293Z,12.20
2023-05-13T02:43:42.725Z,13.30
2023-05-13T02:46:09.453Z,16.00
2023-05-13T02:48:36.078Z,12.60
2023-05-13T02:51:02.555Z,15.50
2023-05-13T02:53:29.073Z,10.90
2023-05-13T02:55:55.759Z,14.00
2023-05-13T02:58:22.156Z,12.50
2023-05-13T03:00:48.561Z,10.70
2023-05-13T03:03:15.104Z,12.50
2023-05-13T03:05:41.632Z,13.60
2023-05-13T03:08:08.052Z,12.20
2023-05-13T03:10:35.079Z,10.60
2023-05-13T03:13:01.672Z,10.50
2023-05-13T03:15:28.110Z,12.10
2023-05-13T03:17:54.635Z,10.70
2023-05-13T03:20:21.393Z,10.70
2023-05-13T03:22:48.100Z,10.60
2023-05-13T03:25:14.678Z,11.30
2023-05-13T03:27:41.133Z,12.00
2023-05-13T03:30:08.471Z,11.50
2023-05-13T03:32:35.651Z,9.50
2023-05-13T03:35:02.184Z,10.20
2023-05-13T03:37:28.698Z,9.70
2023-05-13T03:39:56.180Z,9.70
2023-05-13T03:42:22.707Z,9.50
2023-05-13T03:44:50.077Z,10.20
2023-05-13T03:47:16.584Z,10.30
2023-05-13T03:49:43.358Z,8.70
2023-05-13T03:52:10.475Z,9.10
2023-05-13T03:54:37.246Z,11.00
2023-05-13T03:57:03.715Z,7.70
2023-05-13T03:59:30.190Z,9.00
2023-05-13T04:01:56.630Z,8.20
2023-05-13T04:04:23.211Z,8.60
2023-05-13T04:06:49.616Z,13.00
2023-05-13T04:09:16.126Z,13.30
2023-05-13T04:11:42.823Z,9.50
2023-05-13T04:14:09.317Z,10.40
2023-05-13T04:16:35.825Z,14.60
2023-05-13T04:19:02.296Z,11.70
2023-05-13T04:21:29.111Z,13.00
2023-05-13T04:23:55.705Z,9.90
2023-05-13T04:26:22.213Z,10.30
2023-05-13T04:28:48.747Z,9.90
2023-05-13T04:31:15.591Z,10.20
2023-05-13T04:33:42.024Z,12.20
2023-05-13T04:36:15.077Z,8.60
2023-05-13T04:38:41.912Z,8.50
2023-05-13T04:41:08.375Z,10.20
2023-05-13T04:43:34.799Z,8.70
2023-05-13T04:46:01.420Z,12.10
2023-05-13T04:48:28.102Z,10.60
2023-05-13T04:50:55.304Z,7.10
2023-05-13T04:53:22.326Z,7.10
2023-05-13T04:55:50.176Z,7.10
2023-05-13T04:58:16.657Z,9.00
2023-05-13T05:00:43.470Z,8.80
2023-05-13T05:03:09.950Z,8.70
2023-05-13T05:05:36.481Z,9.40
2023-05-13T05:08:02.955Z,7.40
2023-05-13T05:10:29.416Z,7.20
2023-05-13T05:12:56.196Z,10.30
2023-05-13T05:15:22.949Z,9.90
2023-05-13T05:17:49.561Z,7.90
2023-05-13T05:20:16.360Z,9.60
2023-05-13T05:22:43.062Z,8.40
2023-05-13T05:25:11.083Z,6.80
2023-05-13T05:27:37.731Z,9.90
2023-05-13T05:30:05.160Z,6.80
2023-05-13T05:32:31.856Z,6.60
2023-05-13T05:34:58.313Z,7.70
2023-05-13T05:37:24.751Z,7.50
2023-05-13T05:39:51.173Z,8.30
2023-05-13T05:42:17.707Z,9.90
2023-05-13T05:44:44.245Z,6.90
2023-05-13T05:47:10.715Z,7.50
2023-05-13T05:49:37.360Z,8.50
2023-05-13T05:52:04.108Z,8.80
2023-05-13T05:54:30.645Z,7.30
2023-05-13T05:56:57.194Z,8.30
2023-05-13T05:59:23.721Z,8.50
2023-05-13T06:01:50.177Z,13.40
2023-05-13T06:04:16.812Z,11.90
2023-05-13T06:06:43.491Z,12.70
2023-05-13T06:09:10.028Z,6.50
2023-05-13T06:11:36.496Z,10.50
2023-05-13T06:14:02.961Z,8.90
2023-05-13T06:16:29.512Z,11.40
2023-05-13T06:18:56.076Z,8.60
2023-05-13T06:21:22.725Z,10.00
2023-05-13T06:23:49.301Z,11.20
2023-05-13T06:26:15.703Z,11.00
2023-05-13T06:28:42.296Z,11.60
2023-05-13T06:31:08.805Z,14.00
2023-05-13T06:33:35.347Z,12.10
2023-05-13T06:36:01.873Z,16.50
2023-05-13T06:38:28.294Z,14.00
2023-05-13T06:40:54.822Z,14.80
2023-05-13T06:43:21.369Z,13.30
2023-05-13T06:45:47.812Z,10.40
2023-05-13T06:48:15.823Z,9.10
2023-05-13T06:50:42.374Z,12.50
2023-05-13T06:53:09.905Z,10.60
2023-05-13T06:55:36.354Z,19.60
2023-05-13T06:58:03.156Z,11.70
2023-05-13T07:00:29.853Z,11.60
2023-05-13T07:02:56.489Z,11.90
2023-05-13T07:05:23.249Z,10.80
2023-05-13T07:07:49.737Z,13.40
2023-05-13T07:10:16.361Z,10.80
2023-05-13T07:12:42.970Z,10.70
2023-05-13T07:15:09.987Z,11.00
2023-05-13T07:17:36.502Z,8.00
2023-05-13T07:20:03.215Z,6.80
2023-05-13T07:22:29.653Z,6.90
2023-05-13T07:24:57.065Z,9.40
2023-05-13T07:27:23.622Z,7.70
2023-05-13T07:29:50.199Z,10.90
2023-05-13T07:32:16.847Z,7.10
2023-05-13T07:34:43.289Z,10.90
2023-05-13T07:37:09.923Z,6.70
2023-05-13T07:39:36.388Z,9.00
2023-05-13T07:42:03.764Z,11.00
2023-05-13T07:44:30.314Z,10.60
2023-05-13T07:46:56.923Z,7.00
2023-05-13T07:49:23.472Z,11.60
2023-05-13T07:51:50.597Z,8.40
2023-05-13T07:54:17.167Z,8.00
2023-05-13T07:56:43.844Z,10.50
2023-05-13T07:59:10.278Z,5.50
2023-05-13T08:01:36.836Z,4.90
2023-05-13T08:04:03.507Z,7.70
2023-05-13T08:06:30.064Z,5.70
2023-05-13T08:08:56.531Z,3.90
2023-05-13T08:11:23.362Z,8.70
2023-05-13T08:13:49.870Z,3.30
2023-05-13T08:16:16.467Z,3.70
2023-05-13T08:18:43.202Z,4.60
2023-05-13T08:21:09.831Z,7.60
2023-05-13T08:23:45.457Z,7.80
2023-05-13T08:26:13.264Z,4.00
2023-05-13T08:28:39.950Z,5.10
2023-05-13T08:31:06.535Z,4.90
2023-05-13T08:33:33.295Z,5.70
2023-05-13T08:36:01.035Z,4.40
2023-05-13T08:38:27.731Z,5.70
2023-05-13T08:40:54.393Z,4.60
2023-05-13T08:43:23.836Z,4.00
2023-05-13T08:45:51.939Z,4.60
2023-05-13T08:48:20.096Z,4.00
2023-05-13T08:50:47.147Z,5.00
2023-05-13T08:53:17.073Z,3.30
2023-05-13T08:55:43.590Z,7.40
2023-05-13T08:58:10.326Z,6.40
2023-05-13T09:00:37.105Z,5.40
2023-05-13T09:03:03.803Z,5.40
2023-05-13T09:05:30.844Z,3.40
2023-05-13T09:07:57.516Z,3.90
2023-05-13T09:10:24.161Z,5.70
2023-05-13T09:12:51.932Z,3.70
2023-05-13T09:15:24.233Z,6.00
2023-05-13T09:18:03.390Z,3.60
2023-05-13T09:20:30.604Z,7.30
2023-05-13T09:23:02.239Z,4.50
2023-05-13T09:25:29.681Z,5.70
2023-05-13T09:27:57.855Z,6.40
2023-05-13T09:30:37.926Z,6.60
2023-05-13T09:33:16.349Z,4.20
2023-05-13T09:35:53.629Z,4.70
2023-05-13T09:38:28.237Z,8.40
2023-05-13T09:40:55.665Z,5.60
2023-05-13T09:43:23.907Z,5.90
2023-05-13T09:45:58.463Z,5.50
2023-05-13T09:48:26.821Z,5.30
2023-05-13T09:50:53.771Z,3.00
2023-05-13T09:53:20.432Z,3.70
2023-05-13T09:55:47.972Z,3.80
2023-05-13T09:58:14.827Z,5.20
2023-05-13T10:00:43.472Z,4.30
2023-05-13T10:03:11.159Z,3.10
2023-05-13T10:05:39.583Z,4.00
2023-05-13T10:08:09.306Z,4.60
2023-05-13T10:10:36.910Z,7.30
2023-05-13T10:13:12.286Z,3.70
2023-05-13T10:15:53.556Z,3.40
2023-05-13T10:18:21.613Z,3.50
2023-05-13T10:20:48.658Z,4.60
2023-05-13T10:23:15.286Z,3.30
2023-05-13T10:25:43.576Z,4.30
2023-05-13T10:28:10.453Z,3.80
2023-05-13T10:30:37.257Z,4.80
2023-05-13T10:33:04.197Z,6.30
2023-05-13T10:35:37.089Z,4.80
2023-05-13T10:38:28.812Z,6.70
2023-05-13T10:41:13.698Z,4.50
2023-05-13T10:43:40.472Z,4.80
2023-05-13T10:46:16.018Z,3.30
2023-05-13T10:48:47.571Z,4.30
2023-05-13T10:51:15.968Z,5.40
2023-05-13T10:53:47.400Z,5.10
2023-05-13T10:56:16.104Z,5.80
2023-05-13T10:58:42.603Z,4.40
2023-05-13T11:01:25.766Z,4.90
2023-05-13T11:04:01.988Z,6.00
2023-05-13T11:06:50.244Z,6.70
2023-05-13T11:09:22.843Z,4.80
2023-05-13T11:11:54.564Z,3.80
2023-05-13T11:14:22.870Z,5.20
2023-05-13T11:16:54.717Z,4.80
2023-05-13T11:19:27.907Z,5.60
2023-05-13T11:21:57.955Z,4.40
2023-05-13T11:24:27.080Z,5.90
2023-05-13T11:26:55.841Z,6.80
2023-05-13T11:29:35.971Z,6.80
2023-05-13T11:32:05.165Z,4.80
2023-05-13T11:34:33.454Z,4.30
2023-05-13T11:37:12.101Z,4.50
2023-05-13T11:39:40.248Z,7.50
2023-05-13T11:42:09.066Z,5.30
2023-05-13T11:44:36.721Z,4.30
2023-05-13T11:47:05.360Z,4.60
2023-05-13T11:49:45.947Z,7.40
2023-05-13T11:52:15.157Z,7.10
2023-05-13T11:54:47.692Z,6.90
2023-05-13T11:57:35.097Z,7.00
2023-05-13T12:00:04.097Z,6.60
2023-05-13T12:02:36.500Z,9.70
2023-05-13T12:05:06.137Z,8.50
2023-05-13T12:07:33.417Z,5.30
2023-05-13T12:10:01.907Z,9.20
2023-05-13T12:12:31.169Z,7.00
2023-05-13T12:15:03.032Z,8.40
2023-05-13T12:17:31.581Z,7.10
2023-05-13T12:20:06.124Z,5.60
2023-05-13T12:22:54.029Z,3.70
2023-05-13T12:25:42.471Z,5.40
2023-05-13T12:28:14.768Z,4.30
2023-05-13T12:30:43.671Z,4.20
2023-05-13T12:33:14.856Z,3.20
2023-05-13T12:35:41.511Z,3.50
2023-05-13T12:38:08.224Z,3.80
2023-05-13T12:40:34.746Z,4.70
2023-05-13T12:43:02.392Z,4.20
2023-05-13T12:45:33.033Z,5.20
2023-05-13T12:48:00.644Z,4.60
2023-05-13T12:50:27.474Z,4.60
2023-05-13T12:52:54.446Z,5.90
2023-05-13T12:55:21.464Z,5.00
2023-05-13T12:57:56.345Z,5.90
2023-05-13T13:00:24.175Z,2.90
2023-05-13T13:02:51.481Z,2.90
2023-05-13T13:05:18.041Z,4.90
2023-05-13T13:07:44.552Z,6.00
2023-05-13T13:10:11.011Z,4.70
2023-05-13T13:12:38.035Z,4.40
2023-05-13T13:15:06.299Z,6.10
2023-05-13T13:17:32.881Z,3.60
2023-05-13T13:19:59.530Z,2.20
2023-05-13T13:22:27.083Z,5.10
2023-05-13T13:24:53.606Z,4.60
2023-05-13T13:27:20.056Z,4.10
2023-05-13T13:29:46.609Z,3.10
2023-05-13T13:32:13.715Z,4.90
2023-05-13T13:34:40.188Z,4.80
2023-05-13T13:37:06.666Z,3.40
2023-05-13T13:39:33.185Z,4.10
2023-05-13T13:41:59.656Z,4.90
2023-05-13T13:44:26.884Z,5.00
2023-05-13T13:46:55.097Z,3.90
2023-05-13T13:49:24.033Z,3.10
2023-05-13T13:51:53.832Z,3.50
2023-05-13T13:54:20.578Z,3.90
2023-05-13T13:56:48.324Z,4.40
2023-05-13T13:59:14.899Z,2.90
2023-05-13T14:01:41.393Z,2.10
2023-05-13T14:04:16.949Z,4.40
2023-05-13T14:06:44.991Z,2.80
2023-05-13T14:09:11.629Z,3.50
2023-05-13T14:11:38.299Z,3.20
2023-05-13T14:14:04.734Z,4.50
2023-05-13T14:16:31.180Z,2.70
2023-05-13T14:18:57.945Z,3.20
2023-05-13T14:21:24.688Z,3.60
2023-05-13T14:23:51.142Z,3.20
2023-05-13T14:26:17.838Z,3.40
2023-05-13T14:28:44.870Z,3.30
2023-05-13T14:31:11.618Z,4.10
2023-05-13T14:33:38.148Z,3.50
2023-05-13T14:36:06.045Z,3.80
2023-05-13T14:38:32.476Z,5.60
2023-05-13T14:40:59.101Z,4.20
2023-05-13T14:43:25.928Z,4.30
2023-05-13T14:45:52.405Z,4.70
2023-05-13T14:48:19.489Z,8.80
2023-05-13T14:50:46.784Z,4.00
2023-05-13T14:53:13.929Z,3.90
2023-05-13T14:55:40.590Z,5.00
2023-05-13T14:58:07.163Z,4.50
2023-05-13T15:00:33.680Z,4.10
2023-05-13T15:03:01.310Z,4.10
2023-05-13T15:05:27.914Z,2.90
2023-05-13T15:07:54.542Z,4.20
2023-05-13T15:10:21.322Z,3.00
2023-05-13T15:12:48.053Z,6.30
2023-05-13T15:15:14.540Z,3.00
2023-05-13T15:17:41.054Z,3.90
2023-05-13T15:20:08.624Z,4.70
2023-05-13T15:22:35.057Z,3.80
2023-05-13T15:25:01.714Z,4.10
2023-05-13T15:27:28.262Z,3.30
2023-05-13T15:29:55.231Z,4.20
2023-05-13T15:32:21.876Z,4.30
2023-05-13T15:34:48.354Z,4.30
2023-05-13T15:39:44.189Z,2.60
2023-05-13T15:42:10.676Z,2.80
2023-05-13T15:44:37.193Z,7.20
2023-05-13T15:47:04.204Z,4.10
2023-05-13T15:49:30.777Z,4.70
2023-05-13T15:51:57.161Z,4.60
2023-05-13T15:54:23.631Z,4.80
2023-05-13T15:56:50.093Z,5.20
2023-05-13T15:59:16.616Z,3.50
2023-05-13T16:01:43.127Z,4.50
2023-05-13T16:04:09.999Z,3.50
2023-05-13T16:06:36.455Z,6.40
2023-05-13T16:09:03.020Z,6.00
2023-05-13T16:11:29.570Z,3.80
2023-05-13T16:13:56.013Z,4.80
2023-05-13T16:16:22.582Z,5.00
2023-05-13T16:18:49.431Z,3.60
2023-05-13T16:21:16.132Z,7.60
2023-05-13T16:23:42.652Z,4.20
2023-05-13T16:26:09.264Z,4.80
2023-05-13T16:28:35.718Z,5.30
2023-05-13T16:31:02.151Z,4.30
2023-05-13T16:33:28.577Z,5.70
2023-05-13T16:35:55.005Z,7.10
2023-05-13T16:38:21.743Z,7.00
2023-05-13T16:40:48.805Z,5.20
2023-05-13T16:43:15.354Z,3.80
2023-05-13T16:45:41.852Z,5.90
2023-05-13T16:48:08.521Z,6.30
2023-05-13T16:50:35.077Z,5.50
2023-05-13T16:53:01.618Z,5.80
2023-05-13T16:55:28.364Z,4.70
2023-05-13T16:57:54.844Z,5.10
2023-05-13T17:00:21.926Z,3.60
2023-05-13T17:02:48.761Z,5.20
2023-05-13T17:05:15.437Z,5.80
2023-05-13T17:07:42.082Z,6.10
2023-05-13T17:10:09.147Z,4.60
2023-05-13T17:12:35.600Z,6.50
2023-05-13T17:15:02.071Z,5.00
2023-05-13T17:17:28.548Z,6.40
2023-05-13T17:19:55.049Z,6.30
2023-05-13T17:22:21.505Z,5.50
2023-05-13T17:24:47.960Z,5.60
2023-05-13T17:27:14.694Z,7.20
2023-05-13T17:29:41.127Z,9.50
2023-05-13T17:32:07.969Z,7.90
2023-05-13T17:34:34.386Z,13.60
2023-05-13T17:37:00.830Z,13.60
2023-05-13T17:39:27.455Z,14.50
2023-05-13T17:41:53.967Z,12.80
2023-05-13T17:44:20.423Z,21.70
2023-05-13T17:46:46.817Z,17.90
2023-05-13T17:49:13.362Z,16.70
2023-05-13T17:51:40.054Z,15.60
2023-05-13T17:54:06.566Z,8.60
2023-05-13T17:56:33.150Z,9.40
2023-05-13T17:58:59.577Z,8.00
2023-05-13T18:01:26.066Z,7.30
2023-05-13T18:03:52.595Z,8.40
2023-05-13T18:06:19.103Z,7.60
2023-05-13T18:08:45.664Z,6.20
2023-05-13T18:11:12.112Z,5.10
2023-05-13T18:13:38.657Z,7.10
2023-05-13T18:16:05.547Z,6.20
2023-05-13T18:18:32.067Z,8.10
2023-05-13T18:20:58.689Z,7.40
2023-05-13T18:23:25.153Z,6.70
2023-05-13T18:25:55.898Z,8.10
2023-05-13T18:28:23.442Z,7.20
2023-05-13T18:30:49.939Z,9.00
2023-05-13T18:33:19.951Z,8.30
2023-05-13T18:35:46.406Z,8.40
2023-05-13T18:38:13.034Z,8.90
2023-05-13T18:40:39.426Z,14.60
2023-05-13T18:43:05.905Z,20.60
2023-05-13T18:45:32.395Z,51.90
2023-05-13T18:47:58.983Z,43.00
2023-05-13T18:50:25.612Z,31.60
2023-05-13T18:52:52.029Z,18.80
2023-05-13T18:55:18.617Z,36.90
2023-05-13T18:57:45.165Z,160.70
2023-05-13T19:00:12.313Z,113.30
2023-05-13T19:02:39.209Z,68.00
2023-05-13T19:05:06.946Z,28.60
2023-05-13T19:07:33.811Z,41.40
2023-05-13T19:10:00.374Z,46.10
2023-05-13T19:12:26.899Z,31.50
2023-05-13T19:14:53.298Z,18.40
2023-05-13T19:17:19.758Z,16.80
2023-05-13T19:19:46.736Z,15.30
2023-05-13T19:22:13.282Z,22.70
2023-05-13T19:24:39.810Z,20.60
2023-05-13T19:27:08.479Z,23.30
2023-05-13T19:29:35.217Z,23.50
2023-05-13T19:32:01.670Z,22.20
2023-05-13T19:34:28.275Z,22.80
2023-05-13T19:36:55.678Z,24.70
2023-05-13T19:39:22.158Z,23.00
2023-05-13T19:41:48.648Z,17.90
2023-05-13T19:44:15.297Z,18.40
2023-05-13T19:46:41.769Z,20.50
2023-05-13T19:49:08.450Z,16.10
2023-05-13T19:51:34.857Z,19.10
2023-05-13T19:54:01.394Z,17.70
2023-05-13T19:56:27.881Z,19.10
2023-05-13T19:58:54.301Z,17.90
2023-05-13T20:01:20.757Z,18.20
2023-05-13T20:03:47.453Z,16.60
2023-05-13T20:06:13.912Z,18.00
2023-05-13T20:08:40.379Z,14.40
2023-05-13T20:11:07.014Z,14.90
2023-05-13T20:13:33.478Z,18.20
2023-05-13T20:15:59.921Z,24.10
2023-05-13T20:18:26.467Z,30.90
2023-05-13T20:20:53.015Z,35.30
2023-05-13T20:23:19.479Z,32.40
2023-05-13T20:25:46.446Z,30.50
2023-05-13T20:28:12.829Z,38.60
2023-05-13T20:30:42.892Z,43.20
2023-05-13T20:33:09.376Z,53.20
2023-05-13T20:35:36.054Z,72.40
2023-05-13T20:38:02.684Z,61.40
2023-05-13T20:40:29.329Z,57.40
2023-05-13T20:42:55.759Z,47.10
2023-05-13T20:45:22.246Z,45.70
2023-05-13T20:47:48.816Z,49.60
2023-05-13T20:50:15.428Z,48.00
2023-05-13T20:52:42.087Z,48.70
2023-05-13T20:55:09.389Z,52.00
2023-05-13T20:57:36.097Z,48.90
2023-05-13T21:00:02.652Z,45.00
2023-05-13T21:02:29.098Z,52.50
2023-05-13T21:04:55.594Z,57.10
2023-05-13T21:07:22.099Z,48.80
2023-05-13T21:09:48.856Z,46.50
2023-05-13T21:12:15.294Z,50.10
2023-05-13T21:14:41.839Z,44.10
2023-05-13T21:17:08.758Z,46.50
2023-05-13T21:19:35.261Z,44.80
2023-05-13T21:22:01.857Z,43.80
2023-05-13T21:24:28.526Z,43.90
2023-05-13T21:26:54.914Z,40.90
2023-05-13T21:29:21.419Z,38.80
2023-05-13T21:31:48.093Z,46.90
2023-05-13T21:34:14.741Z,43.90
2023-05-13T21:36:41.259Z,48.10
2023-05-13T21:39:07.755Z,44.90
2023-05-13T21:41:35.707Z,43.30
2023-05-13T21:44:02.159Z,43.40
2023-05-13T21:46:28.640Z,42.10
2023-05-13T21:48:55.079Z,43.50
2023-05-13T21:51:22.315Z,39.10
2023-05-13T21:53:48.874Z,41.30
2023-05-13T21:56:15.325Z,39.60
2023-05-13T21:58:42.066Z,37.50
2023-05-13T22:01:08.777Z,38.80
2023-05-13T22:03:35.290Z,41.60
2023-05-13T22:06:01.932Z,43.20
2023-05-13T22:08:29.827Z,51.40
2023-05-13T22:10:56.308Z,54.50
2023-05-13T22:13:22.760Z,43.70
2023-05-13T22:15:49.399Z,39.10
2023-05-13T22:18:16.074Z,37.90
2023-05-13T22:20:42.823Z,41.70
2023-05-13T22:23:09.358Z,48.20
2023-05-13T22:25:35.782Z,50.90
2023-05-13T22:28:02.182Z,55.60
2023-05-13T22:30:28.687Z,46.20
2023-05-13T22:32:55.124Z,46.70
2023-05-13T22:35:21.778Z,48.80
2023-05-13T22:37:48.423Z,53.20
2023-05-13T22:40:14.901Z,49.00
2023-05-13T22:42:41.384Z,54.40
2023-05-13T22:45:08.630Z,49.50
2023-05-13T22:47:36.218Z,48.00
2023-05-13T22:50:04.583Z,42.50
2023-05-13T22:52:31.126Z,45.40
2023-05-13T22:54:57.606Z,43.70
2023-05-13T22:57:24.107Z,42.90
2023-05-13T22:59:50.966Z,44.90
2023-05-13T23:02:17.595Z,41.80
2023-05-13T23:04:44.208Z,38.50
2023-05-13T23:07:10.794Z,41.00
2023-05-13T23:09:37.424Z,39.40
2023-05-13T23:12:04.519Z,35.90
2023-05-13T23:14:31.039Z,39.20
2023-05-13T23:16:57.486Z,38.10
2023-05-13T23:19:27.537Z,35.10
2023-05-13T23:21:54.381Z,31.70
2023-05-13T23:24:20.952Z,30.40
2023-05-13T23:26:48.920Z,33.90
2023-05-13T23:29:15.509Z,32.90
2023-05-13T23:31:42.503Z,30.40
2023-05-13T23:34:09.367Z,28.90
2023-05-13T23:36:35.897Z,29.90
2023-05-13T23:39:02.672Z,31.10
2023-05-13T23:41:29.190Z,27.50
2023-05-13T23:43:55.704Z,25.80
2023-05-13T23:46:22.413Z,26.60
2023-05-13T23:48:48.902Z,28.50
2023-05-13T23:51:15.453Z,25.80
2023-05-13T23:53:41.999Z,28.70
2023-05-13T23:56:08.512Z,30.20
2023-05-13T23:58:34.957Z,27.80
